Time;durP1;ratioP1;P1;durP2;ratioP2;P2;SDS_P1;SDS_P2;PMS_P1;PMS_P2;Temp;Humidity;BMP_temperature;BMP_pressure;BME280_temperature;BME280_humidity;BME280_pressure;Samples;Min_cycle;Max_cycle;Signal;HPM_P1;HPM_P2
2022/01/31 00:00:14;;;;;;;;;9.50;9.00;;;;;9.95;56.43;101883.53;5039446;28;45319;-42
2022/01/31 00:02:41;;;;;;;;;11.50;10.00;;;;;9.83;56.41;101850.19;5039538;28;45178;-41
2022/01/31 00:05:07;;;;;;;;;14.50;9.25;;;;;9.88;56.75;101860.72;5037068;28;45485;-42
2022/01/31 00:07:33;;;;;;;;;15.75;12.75;;;;;9.88;56.54;101858.09;5039193;28;45362;-41
2022/01/31 00:09:58;;;;;;;;;14.00;10.00;;;;;9.86;56.57;101851.94;5039282;28;45357;-41
2022/01/31 00:12:29;;;;;;;;;12.50;11.00;;;;;9.81;56.21;101845.78;5039438;28;45279;-41
2022/01/31 00:15:01;;;;;;;;;16.25;13.25;;;;;9.79;56.79;101842.28;5039475;28;45387;-41
2022/01/31 00:17:26;;;;;;;;;8.00;6.75;;;;;9.72;56.35;101817.72;5039139;28;46039;-42
2022/01/31 00:19:52;;;;;;;;;15.25;10.00;;;;;9.71;56.34;101819.50;5038960;28;45354;-41
2022/01/31 00:22:18;;;;;;;;;11.25;9.00;;;;;9.69;56.53;101815.97;5039266;28;45285;-41
2022/01/31 00:24:43;;;;;;;;;13.00;9.25;;;;;9.64;56.39;101801.94;5039150;28;45212;-41
2022/01/31 00:27:09;;;;;;;;;9.00;6.50;;;;;9.63;56.44;101794.06;5038877;28;46264;-42
2022/01/31 00:29:34;;;;;;;;;8.25;8.25;;;;;9.60;56.59;101808.03;5039102;28;45181;-41
2022/01/31 00:32:00;;;;;;;;;12.75;8.00;;;;;9.58;56.57;101791.38;5039079;28;45181;-41
2022/01/31 00:34:25;;;;;;;;;13.00;10.50;;;;;9.54;56.59;101802.75;5038982;28;45581;-42
2022/01/31 00:36:51;;;;;;;;;8.00;5.75;;;;;9.49;56.46;101775.59;5038977;28;46018;-41
2022/01/31 00:39:16;;;;;;;;;10.75;6.00;;;;;9.48;56.42;101771.22;5037587;28;45773;-41
2022/01/31 00:41:42;;;;;;;;;6.75;2.75;;;;;9.44;56.80;101762.44;5038923;28;45448;-41
2022/01/31 00:44:37;;;;;;;;;8.25;6.25;;;;;9.39;56.54;101762.41;5039179;28;45443;-42
2022/01/31 00:47:15;;;;;;;;;7.00;6.25;;;;;9.34;56.49;101774.59;5038904;28;46203;-42
2022/01/31 00:49:42;;;;;;;;;8.25;6.00;;;;;9.31;56.72;101798.19;5038458;28;45377;-41
2022/01/31 00:52:07;;;;;;;;;7.75;6.75;;;;;9.29;57.01;101791.19;5037864;28;45374;-42
2022/01/31 00:54:32;;;;;;;;;12.75;6.25;;;;;9.26;56.56;101789.44;5038565;28;45601;-41
2022/01/31 00:56:58;;;;;;;;;5.75;5.50;;;;;9.22;56.59;101785.00;5039012;28;46040;-41
2022/01/31 00:59:24;;;;;;;;;5.75;5.75;;;;;9.21;56.86;101784.13;5038641;28;45329;-41
2022/01/31 01:01:49;;;;;;;;;7.00;6.75;;;;;9.18;56.66;101784.13;5039093;28;45153;-41
2022/01/31 01:04:15;;;;;;;;;8.25;8.25;;;;;9.19;56.47;101779.75;5038314;28;45492;-41
2022/01/31 01:06:41;;;;;;;;;8.75;7.00;;;;;9.17;56.52;101774.50;5037196;28;46011;-41
2022/01/31 01:09:07;;;;;;;;;8.00;8.00;;;;;9.15;56.90;101752.59;5038777;28;45217;-42
2022/01/31 01:11:33;;;;;;;;;10.25;7.50;;;;;9.14;56.56;101737.72;5038805;28;45457;-41
2022/01/31 01:13:59;;;;;;;;;5.75;5.75;;;;;9.10;56.63;101731.56;5038420;28;45402;-41
2022/01/31 01:16:24;;;;;;;;;11.00;6.00;;;;;9.08;56.77;101738.56;5038582;28;46303;-41
2022/01/31 01:18:50;;;;;;;;;12.00;6.50;;;;;9.07;56.87;101755.16;5040831;28;45306;-41
2022/01/31 01:21:15;;;;;;;;;9.50;6.25;;;;;9.04;56.96;101733.28;5041041;28;45256;-41
2022/01/31 01:23:40;;;;;;;;;6.75;5.00;;;;;9.06;56.72;101728.94;5041997;28;45320;-41
2022/01/31 01:26:06;;;;;;;;;7.00;6.00;;;;;9.04;57.08;101720.19;5042089;28;45310;-41
2022/01/31 01:28:31;;;;;;;;;10.25;6.50;;;;;9.01;57.16;101715.78;5042492;28;45315;-41
2022/01/31 01:30:57;;;;;;;;;7.50;6.50;;;;;9.02;56.83;101721.91;5042591;28;45287;-41
2022/01/31 01:33:24;;;;;;;;;9.50;4.00;;;;;9.00;56.85;101719.28;5042322;28;45533;-41
2022/01/31 01:35:51;;;;;;;;;9.50;4.00;;;;;8.99;56.92;101695.66;5042214;28;45319;-41
2022/01/31 01:38:18;;;;;;;;;9.75;6.00;;;;;8.95;56.93;101681.66;5041063;28;45809;-47
2022/01/31 01:40:46;;;;;;;;;8.50;5.25;;;;;8.91;57.02;101678.13;5042046;28;45326;-41
2022/01/31 01:43:13;;;;;;;;;4.75;4.25;;;;;8.93;57.20;101678.13;5042119;28;45484;-43
2022/01/31 01:45:40;;;;;;;;;6.25;4.50;;;;;8.92;57.04;101656.28;5042259;28;45289;-41
2022/01/31 01:48:07;;;;;;;;;9.75;6.00;;;;;8.93;57.16;101672.88;5042007;28;45219;-41
2022/01/31 01:50:36;;;;;;;;;5.50;4.00;;;;;8.93;56.93;101659.78;5042195;28;45253;-41
2022/01/31 01:53:03;;;;;;;;;4.50;1.00;;;;;8.93;57.35;101665.91;5040669;28;45419;-42
2022/01/31 01:55:29;;;;;;;;;4.50;4.00;;;;;8.92;57.10;101656.28;5041878;28;46236;-41
2022/01/31 01:57:55;;;;;;;;;6.25;4.75;;;;;8.92;57.20;101668.53;5020749;28;45328;-41
2022/01/31 02:00:26;;;;;;;;;5.75;2.75;;;;;8.92;57.07;101664.16;5033757;28;45173;-41
2022/01/31 02:02:53;;;;;;;;;6.00;5.00;;;;;8.92;57.15;101665.91;5041804;28;45423;-41
2022/01/31 02:05:18;;;;;;;;;7.50;5.00;;;;;8.93;57.54;101686.00;5041408;28;46126;-41
2022/01/31 02:07:44;;;;;;;;;10.25;4.75;;;;;8.92;57.25;101674.66;5041677;28;45286;-42
2022/01/31 02:10:11;;;;;;;;;6.25;4.25;;;;;8.94;57.46;101669.41;5041981;28;45211;-41
2022/01/31 02:12:45;;;;;;;;;6.50;2.75;;;;;8.92;57.18;101661.53;5041773;28;45449;-41
2022/01/31 02:15:12;;;;;;;;;7.00;6.00;;;;;8.94;57.48;101651.06;5041542;28;45252;-41
2022/01/31 02:17:39;;;;;;;;;7.00;5.00;;;;;8.96;57.31;101637.97;5041801;28;45414;-43
2022/01/31 02:20:06;;;;;;;;;7.00;5.75;;;;;8.92;57.42;101626.59;5041479;28;45371;-41
2022/01/31 02:22:32;;;;;;;;;5.25;4.25;;;;;8.96;57.59;101635.38;5041660;28;45430;-41
2022/01/31 02:24:58;;;;;;;;;9.75;4.25;;;;;8.96;57.31;101638.84;5041565;28;46623;-42
2022/01/31 02:27:35;;;;;;;;;8.50;5.25;;;;;9.00;57.38;101634.50;5041617;28;46174;-41
2022/01/31 02:30:05;;;;;;;;;5.75;3.00;;;;;9.01;57.25;101629.28;5039837;28;45197;-41
2022/01/31 02:32:30;;;;;;;;;4.00;3.00;;;;;9.02;57.69;101615.28;5041442;28;45311;-41
2022/01/31 02:34:57;;;;;;;;;3.50;3.50;;;;;9.00;57.75;101600.41;5041076;28;47268;-41
2022/01/31 02:37:22;;;;;;;;;4.50;3.00;;;;;9.00;58.02;101596.03;5041708;28;45311;-41
2022/01/31 02:39:47;;;;;;;;;3.25;3.25;;;;;8.98;57.92;101587.31;5041085;28;45688;-41
2022/01/31 02:42:14;;;;;;;;;6.25;5.00;;;;;8.96;57.80;101586.41;5040295;28;45725;-41
2022/01/31 02:44:44;;;;;;;;;8.25;7.00;;;;;8.94;57.96;101591.66;5039930;28;45434;-42
2022/01/31 02:47:13;;;;;;;;;4.00;4.00;;;;;8.93;58.30;101608.25;5041278;28;45302;-41
2022/01/31 02:49:48;;;;;;;;;4.75;2.75;;;;;8.93;58.18;101591.63;5040946;28;45516;-41
2022/01/31 02:52:14;;;;;;;;;7.25;4.00;;;;;8.92;58.39;101572.41;5041292;28;45392;-41
2022/01/31 02:54:40;;;;;;;;;5.00;4.00;;;;;8.89;58.25;101561.91;5040749;28;46061;-42
2022/01/31 02:57:06;;;;;;;;;9.25;3.00;;;;;8.87;58.75;101570.66;5039976;28;45832;-41
2022/01/31 02:59:31;;;;;;;;;5.00;4.75;;;;;8.85;58.57;101572.38;5040986;28;45494;-41
2022/01/31 03:01:57;;;;;;;;;9.50;4.25;;;;;8.84;58.54;101568.88;5041262;28;45207;-41
2022/01/31 03:04:23;;;;;;;;;5.00;3.75;;;;;8.81;58.80;101554.88;5040525;28;46389;-42
2022/01/31 03:06:49;;;;;;;;;7.50;4.75;;;;;8.80;58.97;101547.88;5040789;28;45344;-41
2022/01/31 03:09:14;;;;;;;;;6.25;4.00;;;;;8.77;58.83;101556.59;5040907;28;45356;-41
2022/01/31 03:11:39;;;;;;;;;5.25;4.25;;;;;8.77;59.11;101551.34;5040980;28;45248;-41
2022/01/31 03:14:05;;;;;;;;;13.50;3.75;;;;;8.75;59.20;101551.34;5040726;28;45303;-41
2022/01/31 03:16:31;;;;;;;;;3.00;1.50;;;;;8.73;59.47;101531.22;5040847;28;45698;-41
2022/01/31 03:18:56;;;;;;;;;6.25;3.25;;;;;8.72;59.23;101525.09;5040700;28;45762;-41
2022/01/31 03:21:21;;;;;;;;;5.50;4.50;;;;;8.72;59.59;101522.50;5040759;28;45240;-41
2022/01/31 03:23:49;;;;;;;;;3.00;3.00;;;;;8.68;59.53;101517.22;5040722;28;45287;-41
2022/01/31 03:26:15;;;;;;;;;4.00;3.00;;;;;8.72;59.45;101540.84;5040671;28;45284;-41
2022/01/31 03:28:40;;;;;;;;;6.75;3.50;;;;;8.72;59.64;101525.09;5040602;28;45172;-41
2022/01/31 03:31:06;;;;;;;;;3.00;3.00;;;;;8.70;59.85;101505.88;5040788;28;45153;-41
2022/01/31 03:33:33;;;;;;;;;4.75;2.00;;;;;8.71;59.78;101523.34;5040264;28;45414;-41
2022/01/31 03:35:59;;;;;;;;;4.00;2.50;;;;;8.73;60.12;101516.38;5040763;28;45405;-41
2022/01/31 03:38:24;;;;;;;;;5.00;3.50;;;;;8.74;59.70;101526.00;5040447;28;45545;-41
2022/01/31 03:40:49;;;;;;;;;3.50;2.50;;;;;8.77;59.90;101523.38;5039327;28;45400;-51
2022/01/31 03:43:15;;;;;;;;;2.00;1.25;;;;;8.77;60.02;101533.00;5040254;28;46036;-41
2022/01/31 03:45:41;;;;;;;;;4.00;2.00;;;;;8.80;59.78;101512.03;5039168;28;45535;-41
2022/01/31 03:48:07;;;;;;;;;4.25;2.50;;;;;8.84;59.99;101513.84;5040514;28;45317;-41
2022/01/31 03:50:33;;;;;;;;;5.25;2.25;;;;;8.84;60.27;101503.34;5040158;28;45539;-43
2022/01/31 03:52:58;;;;;;;;;4.50;2.50;;;;;8.88;60.01;101496.34;5040128;28;46109;-41
2022/01/31 03:55:24;;;;;;;;;4.00;3.00;;;;;8.87;60.45;101482.38;5038960;28;45301;-43
2022/01/31 03:57:49;;;;;;;;;3.00;1.50;;;;;8.91;60.52;101484.13;5040447;28;45292;-42
2022/01/31 04:00:15;;;;;;;;;2.00;2.00;;;;;8.96;60.59;101505.16;5038958;28;45450;-43
2022/01/31 04:02:43;;;;;;;;;2.00;2.00;;;;;8.94;60.86;101476.31;5040185;28;47556;-42
2022/01/31 04:05:09;;;;;;;;;2.00;2.00;;;;;8.96;60.84;101471.06;5039546;28;45736;-42
2022/01/31 04:07:35;;;;;;;;;7.50;2.50;;;;;8.98;60.92;101484.19;5038990;28;45416;-42
2022/01/31 04:10:00;;;;;;;;;8.00;3.00;;;;;9.02;60.86;101493.78;5040005;28;45394;-42
2022/01/31 04:12:26;;;;;;;;;3.75;3.00;;;;;9.05;60.97;101512.19;5039902;28;46305;-42
2022/01/31 04:14:52;;;;;;;;;7.25;2.25;;;;;9.07;61.00;101511.31;5040144;28;45386;-42
2022/01/31 04:17:20;;;;;;;;;3.00;3.00;;;;;9.09;61.35;101503.44;5040026;28;45357;-41
2022/01/31 04:19:46;;;;;;;;;2.25;2.00;;;;;9.09;61.31;101525.31;5039845;28;45413;-41
2022/01/31 04:22:15;;;;;;;;;6.00;3.25;;;;;9.11;61.55;101523.56;5039706;28;46340;-42
2022/01/31 04:24:41;;;;;;;;;1.75;1.75;;;;;9.14;61.34;101521.84;5039764;28;45385;-41
2022/01/31 04:27:08;;;;;;;;;1.00;1.00;;;;;9.14;61.45;101519.22;5039773;28;45316;-43
2022/01/31 04:29:38;;;;;;;;;5.75;2.00;;;;;9.16;61.56;101514.84;5039721;28;45400;-42
2022/01/31 04:32:04;;;;;;;;;4.75;3.00;;;;;9.18;61.40;101518.34;5039491;28;45319;-41
2022/01/31 04:34:31;;;;;;;;;2.75;1.25;;;;;9.20;61.47;101508.75;5039503;28;45252;-42
2022/01/31 04:36:59;;;;;;;;;4.00;1.00;;;;;9.22;61.50;101501.75;5039752;28;45320;-41
2022/01/31 04:39:27;;;;;;;;;1.00;1.00;;;;;9.25;61.70;101504.41;5039485;28;45463;-42
2022/01/31 04:41:52;;;;;;;;;3.00;0.75;;;;;9.26;61.67;101506.16;5039440;28;45333;-42
2022/01/31 04:44:18;;;;;;;;;1.00;1.00;;;;;9.29;61.77;101500.91;5039911;28;45207;-43
2022/01/31 04:46:49;;;;;;;;;0.00;0.00;;;;;9.30;62.04;101492.16;5039631;28;45359;-41
2022/01/31 04:49:15;;;;;;;;;1.00;1.00;;;;;9.31;62.22;101482.53;5039409;28;45227;-42
2022/01/31 04:51:40;;;;;;;;;1.50;1.00;;;;;9.36;62.15;101492.19;5040200;28;46208;-42
2022/01/31 04:54:06;;;;;;;;;2.00;2.00;;;;;9.37;62.17;101483.44;5042927;28;45231;-43
2022/01/31 04:56:31;;;;;;;;;2.00;1.00;;;;;9.42;62.17;101497.44;5043218;28;45161;-42
2022/01/31 04:58:56;;;;;;;;;2.50;1.00;;;;;9.46;62.18;101490.47;5043313;28;45198;-41
2022/01/31 05:01:23;;;;;;;;;2.25;1.00;;;;;9.42;62.36;101473.84;5041475;28;45635;-41
2022/01/31 05:03:49;;;;;;;;;3.75;2.00;;;;;9.50;62.25;101473.00;5042676;28;45485;-41
2022/01/31 05:06:18;;;;;;;;;2.50;1.50;;;;;9.56;62.40;101478.25;5037849;28;45420;-42
2022/01/31 05:08:43;;;;;;;;;5.00;3.00;;;;;9.58;62.50;101480.00;5041744;28;45466;-42
2022/01/31 05:11:11;;;;;;;;;4.75;1.75;;;;;9.60;62.33;101480.84;5021403;28;46445;-41
2022/01/31 05:13:39;;;;;;;;;1.00;1.00;;;;;9.63;62.41;101480.00;5035442;28;45297;-42
2022/01/31 05:16:05;;;;;;;;;2.75;2.00;;;;;9.64;62.54;101471.25;5042958;28;45287;-41
2022/01/31 05:18:31;;;;;;;;;2.00;1.00;;;;;9.68;62.52;101480.00;5042324;28;45513;-42
2022/01/31 05:20:57;;;;;;;;;2.00;2.00;;;;;9.66;62.50;101494.88;5042572;28;45575;-41
2022/01/31 05:23:22;;;;;;;;;1.00;1.00;;;;;9.69;62.41;101489.63;5042494;28;45319;-42
2022/01/31 05:25:48;;;;;;;;;1.50;1.50;;;;;9.67;62.23;101473.00;5041263;27;45366;-41
2022/01/31 05:28:13;;;;;;;;;2.50;1.00;;;;;9.69;62.05;101490.50;5041369;28;45587;-42
2022/01/31 05:30:39;;;;;;;;;4.75;2.00;;;;;9.69;61.90;101502.75;5041122;28;46052;-44
2022/01/31 05:33:04;;;;;;;;;2.75;2.00;;;;;9.71;61.71;101522.88;5041214;28;45263;-42
2022/01/31 05:35:30;;;;;;;;;0.00;0.00;;;;;9.72;61.38;101523.75;5042530;28;45150;-42
2022/01/31 05:37:55;;;;;;;;;1.75;1.75;;;;;9.71;61.49;101515.00;5042357;28;45187;-42
2022/01/31 05:40:21;;;;;;;;;2.50;1.00;;;;;9.73;61.15;101513.25;5042144;28;46004;-42
2022/01/31 05:42:47;;;;;;;;;1.00;1.00;;;;;9.76;61.32;101504.53;5042235;28;45696;-42
2022/01/31 05:45:12;;;;;;;;;4.50;1.00;;;;;9.75;61.18;101529.88;5042496;28;45220;-42
2022/01/31 05:47:38;;;;;;;;;2.00;1.00;;;;;9.78;61.35;101515.03;5042224;28;45406;-43
2022/01/31 05:50:05;;;;;;;;;0.00;0.00;;;;;9.79;60.93;101501.91;5042026;28;46172;-42
2022/01/31 05:52:30;;;;;;;;;2.25;1.00;;;;;9.80;61.12;101503.66;5042065;28;45332;-42
2022/01/31 05:54:56;;;;;;;;;2.75;2.25;;;;;9.84;60.84;101504.53;5042379;28;45350;-42
2022/01/31 05:57:22;;;;;;;;;1.00;0.50;;;;;9.84;60.92;101509.78;5042124;28;45322;-43
2022/01/31 05:59:47;;;;;;;;;4.25;2.25;;;;;9.87;60.87;101508.03;5040611;28;46910;-41
2022/01/31 06:02:12;;;;;;;;;4.00;1.50;;;;;9.87;60.64;101502.78;5042011;28;45402;-43
2022/01/31 06:04:38;;;;;;;;;1.50;1.50;;;;;9.91;60.75;101495.75;5041109;28;45298;-41
2022/01/31 06:07:03;;;;;;;;;3.25;0.25;;;;;9.93;60.47;101492.25;5042134;28;45291;-43
2022/01/31 06:09:31;;;;;;;;;1.50;1.50;;;;;9.93;60.47;101484.38;5041668;28;46204;-42
2022/01/31 06:11:57;;;;;;;;;3.00;1.75;;;;;9.93;60.41;101510.63;5041973;28;45323;-42
2022/01/31 06:14:23;;;;;;;;;3.75;2.00;;;;;9.95;60.25;101507.16;5040548;28;45301;-41
2022/01/31 06:16:48;;;;;;;;;1.75;1.25;;;;;9.95;60.32;101521.16;5042083;28;45564;-42
2022/01/31 06:19:13;;;;;;;;;2.00;1.00;;;;;9.95;60.14;101515.03;5041448;28;46091;-42
2022/01/31 06:21:39;;;;;;;;;2.25;2.00;;;;;9.93;59.84;101525.53;5041764;28;45332;-43
2022/01/31 06:24:09;;;;;;;;;2.75;1.00;;;;;9.89;59.94;101519.41;5040303;28;45345;-43
2022/01/31 06:26:35;;;;;;;;;1.75;1.75;;;;;9.92;59.85;101539.53;5041519;28;45486;-43
2022/01/31 06:29:01;;;;;;;;;3.25;3.25;;;;;9.90;59.75;101538.66;5041747;28;45263;-42
2022/01/31 06:31:27;;;;;;;;;2.75;2.00;;;;;9.89;59.71;101524.66;5041441;28;45363;-42
2022/01/31 06:33:53;;;;;;;;;1.00;1.00;;;;;9.87;59.62;101526.41;5041471;28;45298;-43
2022/01/31 06:36:18;;;;;;;;;2.00;0.00;;;;;9.85;59.46;101511.50;5040280;28;45362;-42
2022/01/31 06:38:45;;;;;;;;;1.00;1.00;;;;;9.86;59.35;101514.16;5040107;28;46129;-42
2022/01/31 06:41:11;;;;;;;;;1.00;0.25;;;;;9.84;59.49;101509.78;5041080;28;45342;-42
2022/01/31 06:43:37;;;;;;;;;1.50;1.50;;;;;9.83;59.19;101524.63;5041550;28;45314;-41
2022/01/31 06:46:02;;;;;;;;;4.00;2.00;;;;;9.79;59.55;101530.75;5041283;28;45321;-42
2022/01/31 06:48:28;;;;;;;;;1.00;1.00;;;;;9.79;59.25;101519.41;5041089;28;45305;-42
2022/01/31 06:50:53;;;;;;;;;4.75;2.00;;;;;9.78;59.18;101517.66;5041213;28;45230;-41
2022/01/31 06:53:25;;;;;;;;;2.00;0.50;;;;;9.76;59.31;101526.38;5041365;28;45232;-42
2022/01/31 06:55:51;;;;;;;;;2.25;2.25;;;;;9.78;59.38;101536.03;5039712;27;45458;-42
2022/01/31 06:58:17;;;;;;;;;1.00;1.00;;;;;9.78;59.01;101523.75;5040982;28;45372;-41
2022/01/31 07:00:42;;;;;;;;;2.50;1.00;;;;;9.77;58.97;101529.88;5041037;28;45296;-42
2022/01/31 07:03:10;;;;;;;;;3.50;0.75;;;;;9.76;59.11;101530.78;5041269;28;45256;-41
2022/01/31 07:05:36;;;;;;;;;5.00;1.25;;;;;9.74;58.95;101536.00;5040649;28;45343;-44
2022/01/31 07:08:02;;;;;;;;;3.00;0.00;;;;;9.72;58.95;101540.38;5041024;28;45265;-42
2022/01/31 07:10:28;;;;;;;;;2.00;1.25;;;;;9.70;58.94;101555.25;5040578;28;45330;-42
2022/01/31 07:12:54;;;;;;;;;4.50;1.25;;;;;9.65;58.85;101545.59;5041031;28;45418;-42
2022/01/31 07:15:20;;;;;;;;;0.25;0.00;;;;;9.67;58.67;101544.75;5039533;28;45525;-43
2022/01/31 07:17:46;;;;;;;;;3.00;2.00;;;;;9.66;58.72;101550.88;5040687;28;46253;-44
2022/01/31 07:20:21;;;;;;;;;2.00;1.00;;;;;9.65;58.66;101557.00;5040382;28;45312;-42
2022/01/31 07:22:53;;;;;;;;;1.00;1.00;;;;;9.59;58.63;101556.97;5041054;28;45252;-42
2022/01/31 07:25:34;;;;;;;;;2.50;1.75;;;;;9.58;58.65;101565.69;5040453;28;45436;-42
2022/01/31 07:28:05;;;;;;;;;3.00;2.75;;;;;9.56;58.96;101573.59;5040704;28;45351;-42
2022/01/31 07:30:31;;;;;;;;;2.25;1.50;;;;;9.54;58.83;101566.56;5039237;28;45402;-42
2022/01/31 07:32:57;;;;;;;;;3.25;1.00;;;;;9.52;58.70;101560.44;5040719;28;45433;-42
2022/01/31 07:35:22;;;;;;;;;2.50;2.50;;;;;9.51;58.94;101558.69;5040252;28;45338;-42
2022/01/31 07:37:48;;;;;;;;;1.50;1.50;;;;;9.48;58.72;101571.81;5039343;28;47029;-42
2022/01/31 07:40:13;;;;;;;;;2.00;2.00;;;;;9.44;58.97;101550.78;5040129;28;45325;-42
2022/01/31 07:42:38;;;;;;;;;2.50;2.00;;;;;9.46;58.83;101560.41;5040769;28;45257;-42
2022/01/31 07:45:05;;;;;;;;;2.25;2.25;;;;;9.45;58.80;101570.03;5040408;28;45222;-43
2022/01/31 07:47:30;;;;;;;;;5.00;3.00;;;;;9.44;58.54;101574.41;5040411;28;46187;-42
2022/01/31 07:49:55;;;;;;;;;2.75;2.00;;;;;9.42;58.74;101591.91;5039814;28;45217;-42
2022/01/31 07:52:21;;;;;;;;;2.00;2.00;;;;;9.41;58.59;101579.66;5040766;28;45276;-40
2022/01/31 07:54:47;;;;;;;;;4.00;2.50;;;;;9.39;58.92;101573.50;5038797;28;45437;-42
2022/01/31 07:57:12;;;;;;;;;2.00;2.00;;;;;9.39;58.75;101585.75;5040199;28;45385;-42
2022/01/31 07:59:38;;;;;;;;;4.00;3.00;;;;;9.36;58.54;101584.00;5040182;28;45427;-43
2022/01/31 08:02:03;;;;;;;;;1.50;1.00;;;;;9.35;58.72;101592.72;5040465;28;45220;-42
2022/01/31 08:04:28;;;;;;;;;5.25;1.00;;;;;9.32;58.80;101595.34;5039644;28;45430;-42
2022/01/31 08:06:54;;;;;;;;;3.75;3.00;;;;;9.33;58.62;101618.06;5040072;28;46098;-42
2022/01/31 08:09:19;;;;;;;;;7.00;2.00;;;;;9.35;58.81;101625.97;5039562;28;45393;-42
2022/01/31 08:11:45;;;;;;;;;3.75;2.75;;;;;9.34;58.87;101626.84;5040349;28;45402;-42
2022/01/31 08:14:11;;;;;;;;;5.00;1.00;;;;;9.37;58.70;101639.94;5039879;28;45533;-42
2022/01/31 08:16:38;;;;;;;;;3.75;2.00;;;;;9.37;58.65;101635.59;5039744;28;45306;-43
2022/01/31 08:19:07;;;;;;;;;3.75;3.75;;;;;9.37;58.87;101640.84;5039602;28;45221;-42
2022/01/31 08:21:34;;;;;;;;;2.75;2.00;;;;;9.38;58.83;101629.50;5039910;28;45407;-42
2022/01/31 08:23:59;;;;;;;;;2.25;1.75;;;;;9.42;58.46;101636.50;5039565;28;45346;-42
2022/01/31 08:26:25;;;;;;;;;5.75;3.00;;;;;9.43;58.44;101635.63;5039040;28;45304;-42
2022/01/31 08:31:24;;;;;;;;;2.25;1.00;;;;;9.50;58.69;101635.66;5039931;28;45273;-41
2022/01/31 08:34:06;;;;;;;;;4.00;2.75;;;;;9.49;58.39;101628.66;5039376;28;45351;-41
2022/01/31 08:36:35;;;;;;;;;2.75;1.25;;;;;9.52;58.49;101631.28;5039446;28;47022;-42
2022/01/31 08:39:08;;;;;;;;;3.50;2.00;;;;;9.55;58.59;101633.94;5039456;28;45292;-44
2022/01/31 08:41:41;;;;;;;;;9.75;4.00;;;;;9.55;58.35;101632.19;5037778;28;45580;-42
2022/01/31 08:44:10;;;;;;;;;1.50;1.00;;;;;9.59;58.48;101640.94;5038463;28;45330;-43
2022/01/31 08:46:40;;;;;;;;;2.50;1.25;;;;;9.62;58.60;101635.69;5039176;28;47180;-42
2022/01/31 08:49:09;;;;;;;;;3.75;3.00;;;;;9.61;58.62;101626.09;5039211;28;45247;-41
2022/01/31 08:51:36;;;;;;;;;6.00;2.50;;;;;9.65;58.58;101646.22;5039377;28;45314;-42
2022/01/31 08:54:04;;;;;;;;;2.00;2.00;;;;;9.64;58.44;101657.59;5039436;28;45367;-43
2022/01/31 08:56:29;;;;;;;;;2.00;0.75;;;;;9.63;58.46;101663.69;5039258;28;46131;-41
2022/01/31 08:58:56;;;;;;;;;4.00;3.00;;;;;9.67;58.53;101675.09;5039147;28;45276;-42
2022/01/31 09:01:22;;;;;;;;;8.00;3.00;;;;;9.69;58.23;101668.97;5039364;28;45327;-43
2022/01/31 09:06:21;;;;;;;;;4.25;3.25;;;;;9.68;58.55;101655.84;5034828;28;46006;-42
2022/01/31 09:08:46;;;;;;;;;5.00;2.00;;;;;9.71;58.40;101653.22;5039327;28;45170;-42
2022/01/31 09:11:11;;;;;;;;;3.50;1.75;;;;;9.73;58.58;101635.75;5037994;28;45255;-42
2022/01/31 09:13:38;;;;;;;;;2.25;2.25;;;;;9.71;58.54;101624.34;5039241;28;45407;-42
2022/01/31 09:16:04;;;;;;;;;3.00;2.00;;;;;9.76;58.38;101622.66;5039184;28;45256;-42
2022/01/31 09:18:29;;;;;;;;;6.50;4.00;;;;;9.79;58.45;101621.78;5038692;28;45402;-44
2022/01/31 09:20:57;;;;;;;;;3.50;2.50;;;;;9.81;58.43;101634.03;5039148;28;45315;-43
2022/01/31 09:23:23;;;;;;;;;4.00;3.00;;;;;9.84;58.74;101638.41;5037807;28;45334;-42
2022/01/31 09:25:48;;;;;;;;;2.00;1.50;;;;;9.87;58.25;101614.78;5038844;28;45430;-42
2022/01/31 09:28:15;;;;;;;;;6.50;4.00;;;;;9.91;58.18;101621.78;5039142;28;45196;-42
2022/01/31 09:30:40;;;;;;;;;4.50;2.75;;;;;9.91;58.30;101612.19;5039298;28;45274;-42
2022/01/31 09:33:06;;;;;;;;;4.75;2.50;;;;;9.89;58.14;101607.81;5038730;28;45177;-43
2022/01/31 09:35:33;;;;;;;;;6.25;1.75;;;;;9.97;58.36;101626.19;5039116;28;46296;-42
2022/01/31 09:37:59;;;;;;;;;3.75;2.00;;;;;9.98;58.14;101620.94;5038986;28;45340;-43
2022/01/31 09:40:25;;;;;;;;;2.00;2.00;;;;;10.02;58.25;101620.06;5041967;28;45453;-42
2022/01/31 09:48:33;;;;;;;;;1.50;1.50;;;;;10.13;58.05;101638.47;5041927;28;45402;-43
2022/01/31 09:51:16;;;;;;;;;4.75;2.25;;;;;10.15;58.15;101643.72;5042367;28;45509;-43
2022/01/31 09:53:49;;;;;;;;;3.50;3.00;;;;;10.17;57.86;101644.63;5042176;28;45292;-43
2022/01/31 09:56:19;;;;;;;;;5.00;2.00;;;;;10.19;57.98;101621.88;5042004;28;45324;-42
2022/01/31 09:58:44;;;;;;;;;3.50;3.00;;;;;10.20;57.98;101620.97;5040848;27;45314;-42
2022/01/31 10:01:19;;;;;;;;;4.25;3.00;;;;;10.24;57.94;101636.75;5040742;28;45308;-43
2022/01/31 10:03:45;;;;;;;;;3.75;1.75;;;;;10.27;57.40;101643.75;5041616;28;45377;-43
2022/01/31 10:06:25;;;;;;;;;4.50;2.00;;;;;10.24;58.11;101655.13;5040255;28;46544;-43
2022/01/31 10:09:18;;;;;;;;;3.00;2.00;;;;;10.28;57.54;101648.16;5041802;28;45471;-42
2022/01/31 10:11:53;;;;;;;;;6.25;5.00;;;;;10.28;57.78;101636.78;5040701;28;45431;-42
2022/01/31 10:17:09;;;;;;;;;1.00;0.75;;;;;10.33;57.55;101659.53;5041721;28;45316;-42
2022/01/31 10:19:44;;;;;;;;;2.50;2.00;;;;;10.35;57.60;101643.75;5041645;28;45287;-42
2022/01/31 10:22:13;;;;;;;;;2.75;2.00;;;;;10.33;57.55;101642.91;5041681;28;45291;-42
2022/01/31 10:24:41;;;;;;;;;4.00;2.25;;;;;10.28;57.66;101649.91;5041608;28;45404;-42
2022/01/31 10:27:13;;;;;;;;;4.75;3.25;;;;;10.24;57.20;101665.66;5040029;28;47978;-42
2022/01/31 10:29:39;;;;;;;;;2.50;1.00;;;;;10.25;56.98;101690.16;5041736;28;45402;-43
2022/01/31 10:32:12;;;;;;;;;4.00;3.00;;;;;10.25;56.81;101684.91;5040067;27;45272;-42
2022/01/31 10:34:51;;;;;;;;;7.25;2.50;;;;;10.24;57.02;101676.16;5040005;28;45666;-44
2022/01/31 10:37:19;;;;;;;;;2.00;2.00;;;;;10.28;56.95;101663.03;5041465;28;46354;-42
2022/01/31 10:54:37;;;;;;;;;3.75;1.75;;;;;10.59;56.47;101687.66;5061322;28;45320;-42
2022/01/31 10:56:43;;;;;;;;;3.75;2.50;;;;;10.62;56.65;101698.16;5058010;28;45424;-42
2022/01/31 10:59:12;;;;;;;;;2.75;2.00;;;;;10.67;56.51;101704.28;5061223;28;46495;-41
2022/01/31 11:01:39;;;;;;;;;4.00;2.25;;;;;10.72;56.55;101697.28;5060966;28;45219;-41
2022/01/31 11:04:11;;;;;;;;;3.00;2.00;;;;;10.76;56.66;101700.78;5054421;28;45462;-42
2022/01/31 11:06:39;;;;;;;;;1.25;1.25;;;;;10.79;56.49;101713.03;5040846;28;45242;-41
2022/01/31 11:09:10;;;;;;;;;3.50;2.00;;;;;10.78;56.55;101701.66;5039286;28;46991;-42
2022/01/31 11:11:39;;;;;;;;;3.00;3.00;;;;;10.82;56.43;101697.28;5040753;28;45266;-42
2022/01/31 11:14:05;;;;;;;;;7.50;2.25;;;;;10.85;56.38;101713.06;5039659;28;45424;-43
2022/01/31 11:16:31;;;;;;;;;2.25;1.00;;;;;10.86;56.25;101720.06;5040874;28;45241;-43
2022/01/31 11:19:02;;;;;;;;;3.75;1.75;;;;;10.91;56.06;101705.16;5040401;28;45904;-42
2022/01/31 11:21:31;;;;;;;;;3.00;1.75;;;;;10.92;55.95;101691.16;5040713;28;45310;-42
2022/01/31 11:24:03;;;;;;;;;2.25;0.50;;;;;10.98;55.92;101701.66;5040576;28;45307;-42
2022/01/31 11:26:36;;;;;;;;;3.75;2.00;;;;;11.02;55.77;101707.81;5040522;28;45524;-42
2022/01/31 11:29:03;;;;;;;;;2.00;1.25;;;;;11.04;55.79;101699.03;5040529;28;46376;-43
2022/01/31 11:31:29;;;;;;;;;2.50;1.00;;;;;11.08;55.70;101693.75;5040450;28;45393;-42
2022/01/31 11:33:58;;;;;;;;;3.25;1.00;;;;;11.10;55.71;101702.53;5040588;28;45339;-42
2022/01/31 11:36:24;;;;;;;;;2.75;1.00;;;;;11.13;55.64;101697.25;5040418;28;45525;-42
2022/01/31 11:38:50;;;;;;;;;2.00;2.00;;;;;11.17;55.59;101676.22;5040411;28;45282;-42
2022/01/31 11:41:16;;;;;;;;;2.00;2.00;;;;;11.21;55.48;101688.47;5040196;28;45286;-44
2022/01/31 11:43:51;;;;;;;;;3.00;1.00;;;;;11.23;55.56;101696.34;5040651;28;45283;-42
2022/01/31 11:46:24;;;;;;;;;3.50;2.50;;;;;11.27;55.78;101697.22;5040240;28;45331;-42
2022/01/31 11:48:52;;;;;;;;;3.75;0.75;;;;;11.26;55.79;101712.16;5038608;28;47338;-42
2022/01/31 11:51:18;;;;;;;;;5.75;3.50;;;;;11.24;55.68;101721.78;5040190;28;45248;-42
2022/01/31 11:53:44;;;;;;;;;4.25;2.00;;;;;11.17;56.07;101712.16;5040498;28;45509;-41
2022/01/31 11:56:22;;;;;;;;;3.00;2.00;;;;;11.16;56.05;101728.84;5039820;28;45382;-42
2022/01/31 11:58:50;;;;;;;;;6.00;2.00;;;;;11.10;56.01;101719.19;5040116;28;46337;-44